KBEC/BEC METAR and TAF weather

Enter ICAO airport designator
Station Type Date Time Source
KBEC METAR 2022/06/26 07:55 UTC NOAA

KBEC 260755Z AUTO 03017G21KT 10SM VCTSRA SCT042 BKN050 OVC080 21/14 A3020 RMK AO2 LTG DSNT ALQDS T02120144


Station Type Date Time Source
KBEC Decoded METAR 2022/06/26 07:55 UTC NOAA

Station name not available
Jun 26, 2022 - 03:55 AM EDT / 2022.06.26 0755 UTC
Wind: from the NNE (030 degrees) at 20 MPH (17 KT) gusting to 24 MPH (21 KT):0
Visibility: 10 mile(s):0
Sky conditions: overcast
Weather: rain with thunder in the vicinity; Lightning observed
Temperature: 70.2 F (21.2 C)
Dew Point: 57.9 F (14.4 C)
Relative Humidity: 65%
Pressure (altimeter): 30.2 in. Hg (1022 hPa)
ob: KBEC 260755Z AUTO 03017G21KT 10SM VCTSRA SCT042 BKN050 OVC080 21/14 A3020 RMK AO2 LTG DSNT ALQDS T02120144
cycle: 8

Station Type Date Time Source
KBEC TAF UTC NOAA

Error!

Example: see airport list